Terminal Aerodrome Forecast
Issued by NWS

Home | Current Version | Previous Version | Text Only | Print | Product List | Glossary On
Versions: 1 2 3 4 5 6 7 8 9 10 11 12 13 14
000
FTUS44 KEPZ 200500
TAFTCS
TAF
KTCS 200530Z 2006/2106 29014KT P6SM SCT140 BKN250
     FM201800 31005KT P6SM SCT060 SCT150
     FM202200 VRB06KT P6SM VCTS SCT070CB=

USA.gov is the U.S. government's official web portal to all federal, state and local government web resources and services.